Moffett Field, CA

05:28 PM PST del 18 Dicembre 2014 (GMT -0800)
Moffett Federal Air Field | Change Station
CLOSE
Current Station
Aeroporto
Location: Moffett NAS,
Altitudine: 39 ft
Stazioni meteo nelle vicinanze

Alt. 39 ft 37.41 °N, 122.05 °W | Updated 32 minutes ago

Molto nuvoloso
Molto nuvoloso
60 °F
Sembra 60 °F
N
5
Vento Variabile Vento da SSE

Oggi
Massima -- | Minima -- °F
--% Possibilità di precip.
Ieri
Massima -- | Minima -- °F
Precip. -- in
7:17 AM 4:52 PM
Luna calante, 11% visible
Pressione 30.15 in
Visibilità 10.0 miglia
Nuvole Coperto 4600 ft
Punto di rugiada 48 °F
Umidità 64%
Piovosità 0.00 in
Spessore del manto nevoso Non disponibile.
Raggi UV 0 fuori da 12
Polline 3.50 fuori da 12
Qualità dell'aria Non disponibile.
Flu Activity Non disponibile.
METAR KNUQ 190056Z AUTO 16004KT 10SM OVC046 16/09 A3014 RMK AO2 SLP210 T01560089 TSNO

More Conditions Fewer Conditions

Pressione 30.15 in
Visibilità 10.0 miglia
Nuvole Coperto 4600 ft
Punto di rugiada 48 °F
Umidità 64%
Piovosità 0.00 in
Spessore del manto nevoso Non disponibile.
Raggi UV 0 fuori da 12
Polline 3.50 fuori da 12
Qualità dell'aria Non disponibile.
Flu Activity Non disponibile.
METAR KNUQ 190056Z AUTO 16004KT 10SM OVC046 16/09 A3014 RMK AO2 SLP210 T01560089 TSNO

More Conditions Fewer Conditions

10-Day Weather Forecast

Almanac

Astronomia

Dec. 18, 2014 Alba Tramonto
Ora attuale
Crepuscolo civile
Crepuscolo nautico
Crepuscolo astronomico
Luna
Estensione della luce visibile
Lunghezza del giorno
Tomorrow will be .
, % of the Moon is Illuminated

Gli estremi di oggi

State Highs State Lows

Community

WunderPhotos

Upload Photos

1,779,032 foto caricate!

WunderBlogs® & News

Nearby

Qualità dell'aria

  Qualità dell'aria Indice AQ Inquinante
Not available.

Profondità neve

Stazione Profondità Altitudine

Attività sismica

Città  Distanza Mag. Data & Ora
Minimo Magnitudo Mostrato è 2.5.

Temperature delle acque costiere

Località Temperatura

Stazioni meteo nelle vicinanze